createdAt,value
2022-08-04T00:00:42.630Z,27.44
2022-08-04T00:03:12.900Z,27.05
2022-08-04T00:05:43.201Z,26.76
2022-08-04T00:08:14.687Z,26.79
2022-08-04T00:10:42.685Z,26.75
2022-08-04T00:13:10.343Z,27.14
2022-08-04T00:15:40.332Z,26.59
2022-08-04T00:18:10.082Z,26.47
2022-08-04T00:20:39.418Z,26.68
2022-08-04T00:23:07.409Z,26.97
2022-08-04T00:25:35.713Z,26.51
2022-08-04T00:28:06.680Z,26.70
2022-08-04T00:30:40.063Z,27.02
2022-08-04T00:33:15.176Z,26.58
2022-08-04T00:35:42.906Z,26.05
2022-08-04T00:38:10.600Z,25.80
2022-08-04T00:40:43.437Z,25.39
2022-08-04T00:43:13.930Z,25.46
2022-08-04T00:46:16.413Z,24.98
2022-08-04T00:48:53.230Z,25.01
2022-08-04T00:51:25.960Z,25.13
2022-08-04T00:53:58.660Z,25.20
2022-08-04T00:56:38.118Z,25.27
2022-08-04T00:59:08.774Z,25.24
2022-08-04T01:01:47.159Z,25.44
2022-08-04T01:04:22.019Z,25.34
2022-08-04T01:06:58.877Z,25.22
2022-08-04T01:09:28.291Z,25.23
2022-08-04T01:12:05.182Z,24.96
2022-08-04T01:14:39.114Z,24.64
2022-08-04T01:17:12.853Z,24.78
2022-08-04T01:19:55.063Z,25.03
2022-08-04T01:22:37.951Z,24.79
2022-08-04T01:25:13.949Z,24.96
2022-08-04T01:27:51.037Z,25.05
2022-08-04T01:30:23.186Z,24.90
2022-08-04T01:32:54.302Z,25.05
2022-08-04T01:35:46.703Z,25.28
2022-08-04T01:38:21.339Z,25.10
2022-08-04T01:40:49.620Z,24.90
2022-08-04T01:43:17.297Z,24.87
2022-08-04T01:45:46.867Z,24.80
2022-08-04T01:48:14.459Z,24.70
2022-08-04T01:50:42.276Z,24.44
2022-08-04T01:53:10.013Z,24.56
2022-08-04T01:55:51.897Z,24.49
2022-08-04T01:58:23.552Z,24.46
2022-08-04T02:01:06.625Z,24.62
2022-08-04T02:04:19.703Z,24.75
2022-08-04T02:06:27.389Z,25.39
2022-08-04T02:08:57.411Z,25.44
2022-08-04T02:11:25.017Z,25.74
2022-08-04T02:13:55.769Z,25.61
2022-08-04T02:16:30.597Z,24.98
2022-08-04T02:19:05.358Z,24.81
2022-08-04T02:21:42.431Z,24.58
2022-08-04T02:24:18.063Z,24.35
2022-08-04T02:26:47.020Z,24.29
2022-08-04T02:29:15.130Z,24.35
2022-08-04T02:31:47.606Z,24.34
2022-08-04T02:34:20.305Z,24.22
2022-08-04T02:36:47.934Z,24.46
2022-08-04T02:39:15.612Z,22.59
2022-08-04T02:41:46.177Z,23.98
2022-08-04T02:44:13.942Z,24.31
2022-08-04T02:46:46.438Z,24.03
2022-08-04T02:49:15.614Z,24.31
2022-08-04T02:51:44.964Z,24.06
2022-08-04T02:54:12.938Z,24.20
2022-08-04T02:56:40.867Z,24.49
2022-08-04T02:59:13.723Z,24.70
2022-08-04T03:01:56.656Z,24.50
2022-08-04T03:04:42.456Z,24.62
2022-08-04T03:07:23.077Z,24.42
2022-08-04T03:10:07.017Z,25.06
2022-08-04T03:12:49.969Z,24.68
2022-08-04T03:15:31.039Z,24.65
2022-08-04T03:18:19.887Z,24.87
2022-08-04T03:21:08.113Z,24.69
2022-08-04T03:23:52.975Z,24.59
2022-08-04T03:26:25.425Z,24.10
2022-08-04T03:29:09.210Z,23.85
2022-08-04T03:31:57.806Z,24.07
2022-08-04T03:34:32.377Z,23.71
2022-08-04T03:37:14.543Z,23.92
2022-08-04T03:39:53.736Z,24.47
2022-08-04T03:42:32.371Z,24.49
2022-08-04T03:45:20.580Z,24.66
2022-08-04T03:48:07.202Z,24.99
2022-08-04T03:50:42.583Z,24.78
2022-08-04T03:53:14.749Z,24.39
2022-08-04T03:56:01.390Z,24.45
2022-08-04T03:58:35.301Z,24.28
2022-08-04T04:01:08.325Z,24.53
2022-08-04T04:03:57.098Z,24.28
2022-08-04T04:06:54.064Z,24.11
2022-08-04T04:12:37.032Z,24.11
2022-08-04T04:15:24.948Z,24.21
2022-08-04T04:18:16.269Z,24.55
2022-08-04T04:21:02.876Z,24.58
2022-08-04T04:23:41.287Z,24.69
2022-08-04T04:26:18.386Z,25.63
2022-08-04T04:28:53.222Z,26.08
2022-08-04T04:31:38.784Z,27.01
2022-08-04T04:34:09.823Z,28.84
2022-08-04T04:36:39.107Z,27.81
2022-08-04T04:39:10.216Z,28.12
2022-08-04T04:41:42.527Z,27.91
2022-08-04T04:44:15.687Z,26.30
2022-08-04T04:46:44.911Z,26.04
2022-08-04T04:49:16.246Z,26.06
2022-08-04T04:51:45.237Z,25.69
2022-08-04T04:54:16.524Z,24.68
2022-08-04T04:56:50.853Z,24.55
2022-08-04T04:59:20.800Z,25.04
2022-08-04T05:02:12.869Z,25.25
2022-08-04T05:04:58.339Z,25.56
2022-08-04T05:07:36.245Z,25.01
2022-08-04T05:10:05.062Z,25.02
2022-08-04T05:14:35.372Z,24.74
2022-08-04T05:15:41.426Z,24.52
2022-08-04T05:18:09.586Z,24.75
2022-08-04T05:20:42.084Z,24.73
2022-08-04T05:23:12.587Z,25.12
2022-08-04T05:25:40.592Z,24.84
2022-08-04T05:28:10.063Z,25.45
2022-08-04T05:30:38.472Z,24.93
2022-08-04T05:33:08.971Z,25.87
2022-08-04T05:36:17.108Z,25.34
2022-08-04T05:38:32.265Z,25.22
2022-08-04T05:41:00.356Z,25.90
2022-08-04T05:43:28.587Z,25.52
2022-08-04T05:45:57.914Z,26.06
2022-08-04T05:48:25.969Z,25.79
2022-08-04T05:50:56.522Z,25.86
2022-08-04T05:53:29.815Z,25.81
2022-08-04T05:55:59.664Z,25.56
2022-08-04T05:58:28.057Z,25.93
2022-08-04T06:00:56.743Z,25.97
2022-08-04T06:03:24.548Z,25.99
2022-08-04T06:05:52.161Z,25.98
2022-08-04T06:08:20.270Z,26.29
2022-08-04T06:10:50.714Z,26.02
2022-08-04T06:13:47.453Z,26.87
2022-08-04T06:16:07.629Z,26.71
2022-08-04T06:19:59.026Z,26.61
2022-08-04T06:21:24.709Z,26.61
2022-08-04T06:23:53.648Z,26.82
2022-08-04T06:26:27.711Z,26.93
2022-08-04T06:28:55.626Z,27.20
2022-08-04T06:32:27.363Z,27.33
2022-08-04T06:34:32.620Z,27.17
2022-08-04T06:37:00.622Z,27.65
2022-08-04T06:39:28.386Z,27.54
2022-08-04T06:42:20.694Z,27.92
2022-08-04T06:44:47.626Z,27.53
2022-08-04T06:47:19.456Z,27.28
2022-08-04T06:51:25.651Z,27.74
2022-08-04T06:52:27.756Z,27.56
2022-08-04T06:54:55.827Z,27.88
2022-08-04T06:57:26.539Z,28.02
2022-08-04T06:59:57.004Z,28.30
2022-08-04T07:02:25.647Z,28.64
2022-08-04T07:04:56.013Z,29.10
2022-08-04T07:07:36.660Z,28.75
2022-08-04T07:10:05.095Z,28.79
2022-08-04T07:12:38.720Z,28.31
2022-08-04T07:15:07.299Z,27.94
2022-08-04T07:17:36.610Z,28.36
2022-08-04T07:20:08.036Z,29.25
2022-08-04T07:22:37.481Z,29.69
2022-08-04T07:25:12.731Z,29.44
2022-08-04T07:27:48.471Z,29.18
2022-08-04T07:30:18.839Z,29.28
2022-08-04T07:32:54.185Z,29.17
2022-08-04T07:36:05.027Z,29.67
2022-08-04T07:38:11.872Z,30.06
2022-08-04T07:40:39.962Z,30.07
2022-08-04T07:43:09.867Z,29.39
2022-08-04T07:45:37.833Z,29.83
2022-08-04T07:48:06.992Z,29.19
2022-08-04T07:50:35.292Z,29.29
2022-08-04T07:53:55.409Z,29.07
2022-08-04T07:55:55.533Z,28.98
2022-08-04T07:58:29.645Z,29.62
2022-08-04T08:01:03.156Z,29.78
2022-08-04T08:03:31.133Z,30.65
2022-08-04T08:06:17.787Z,30.10
2022-08-04T08:08:46.755Z,30.31
2022-08-04T08:11:15.184Z,30.05
2022-08-04T08:13:45.478Z,30.45
2022-08-04T08:16:15.771Z,30.29
2022-08-04T08:18:49.666Z,31.10
2022-08-04T08:21:20.504Z,31.10
2022-08-04T08:23:50.674Z,30.96
2022-08-04T08:26:18.725Z,30.94
2022-08-04T08:28:49.173Z,31.26
2022-08-04T08:31:17.110Z,31.53
2022-08-04T08:33:46.949Z,31.95
2022-08-04T08:36:17.146Z,32.18
2022-08-04T08:38:46.758Z,32.19
2022-08-04T08:41:41.661Z,32.19
2022-08-04T08:44:19.048Z,32.29
2022-08-04T08:46:55.658Z,32.08
2022-08-04T08:50:00.553Z,32.42
2022-08-04T08:52:57.342Z,32.89
2022-08-04T08:55:28.348Z,32.26
2022-08-04T08:58:08.148Z,32.55
2022-08-04T09:00:42.715Z,32.94
2022-08-04T09:03:38.124Z,32.87
2022-08-04T09:06:11.430Z,32.83
2022-08-04T09:08:43.810Z,32.60
2022-08-04T09:11:14.628Z,32.88
2022-08-04T09:13:44.046Z,33.03
2022-08-04T09:16:16.013Z,33.44
2022-08-04T09:18:50.715Z,33.62
2022-08-04T09:21:19.056Z,33.42
2022-08-04T09:23:48.514Z,33.35
2022-08-04T09:26:20.520Z,33.13
2022-08-04T09:28:54.008Z,33.30
2022-08-04T09:31:29.273Z,33.38
2022-08-04T09:34:18.988Z,33.52
2022-08-04T09:36:58.060Z,33.67
2022-08-04T09:39:27.841Z,34.11
2022-08-04T09:42:13.003Z,32.95
2022-08-04T09:44:51.365Z,34.00
2022-08-04T09:47:39.337Z,33.89
2022-08-04T09:50:22.083Z,33.97
2022-08-04T09:52:51.819Z,33.55
2022-08-04T09:55:20.890Z,34.07
2022-08-04T09:57:57.528Z,33.99
2022-08-04T10:00:40.595Z,34.24
2022-08-04T10:03:11.139Z,34.75
2022-08-04T10:05:47.106Z,34.71
2022-08-04T10:08:19.044Z,34.45
2022-08-04T10:10:49.253Z,32.72
2022-08-04T10:13:23.247Z,35.03
2022-08-04T10:15:54.416Z,34.94
2022-08-04T10:18:27.227Z,35.28
2022-08-04T10:21:07.859Z,34.91
2022-08-04T10:23:56.274Z,34.80
2022-08-04T10:26:30.941Z,34.82
2022-08-04T10:29:00.496Z,35.12
2022-08-04T10:31:29.511Z,35.40
2022-08-04T10:34:00.297Z,35.79
2022-08-04T10:36:29.173Z,35.79
2022-08-04T10:38:59.322Z,35.81
2022-08-04T10:41:32.123Z,35.81
2022-08-04T10:44:03.260Z,35.98
2022-08-04T10:46:33.130Z,36.05
2022-08-04T10:49:04.810Z,35.95
2022-08-04T10:51:57.733Z,35.52
2022-08-04T10:54:31.418Z,34.96
2022-08-04T10:57:01.212Z,35.51
2022-08-04T10:59:29.940Z,35.48
2022-08-04T11:02:03.712Z,34.98
2022-08-04T11:04:37.126Z,35.19
2022-08-04T11:07:05.355Z,34.65
2022-08-04T11:09:33.471Z,34.78
2022-08-04T11:12:06.678Z,35.19
2022-08-04T11:14:36.184Z,35.40
2022-08-04T11:17:05.754Z,35.43
2022-08-04T11:19:45.015Z,34.21
2022-08-04T11:22:17.755Z,34.85
2022-08-04T11:24:46.125Z,35.08
2022-08-04T11:27:15.299Z,35.28
2022-08-04T11:29:51.691Z,35.55
2022-08-04T11:32:20.070Z,35.34
2022-08-04T11:34:53.118Z,35.40
2022-08-04T11:37:24.505Z,35.24
2022-08-04T11:39:54.611Z,36.69
2022-08-04T11:42:25.715Z,36.86
2022-08-04T11:44:54.270Z,36.82
2022-08-04T11:47:30.307Z,37.01
2022-08-04T11:50:02.673Z,35.87
2022-08-04T11:52:30.462Z,37.28
2022-08-04T11:54:59.099Z,37.03
2022-08-04T11:57:35.616Z,37.38
2022-08-04T12:00:12.077Z,37.84
2022-08-04T12:02:55.600Z,37.86
2022-08-04T12:05:37.065Z,37.26
2022-08-04T12:08:13.059Z,37.50
2022-08-04T12:10:43.513Z,37.75
2022-08-04T12:13:23.069Z,38.20
2022-08-04T12:15:54.776Z,37.69
2022-08-04T12:18:24.694Z,37.79
2022-08-04T12:20:57.366Z,37.92
2022-08-04T12:23:27.772Z,37.01
2022-08-04T12:25:58.489Z,35.99
2022-08-04T12:28:28.272Z,35.81
2022-08-04T12:31:04.247Z,35.67
2022-08-04T12:34:03.274Z,36.16
2022-08-04T12:36:26.763Z,36.88
2022-08-04T12:39:01.380Z,36.85
2022-08-04T12:41:31.102Z,37.28
2022-08-04T12:44:07.549Z,37.34
2022-08-04T12:46:56.076Z,36.21
2022-08-04T12:49:48.117Z,36.66
2022-08-04T12:53:01.698Z,36.74
2022-08-04T12:55:26.757Z,37.43
2022-08-04T12:57:54.723Z,38.17
2022-08-04T13:00:33.141Z,38.58
2022-08-04T13:03:09.590Z,38.84
2022-08-04T13:05:39.319Z,39.08
2022-08-04T13:08:08.617Z,39.55
2022-08-04T13:10:38.997Z,39.51
2022-08-04T13:13:06.828Z,38.72
2022-08-04T13:15:47.390Z,37.60
2022-08-04T13:18:28.865Z,37.85
2022-08-04T13:20:57.959Z,37.88
2022-08-04T13:23:27.981Z,37.23
2022-08-04T13:26:42.584Z,36.46
2022-08-04T13:29:16.587Z,36.19
2022-08-04T13:31:45.115Z,36.55
2022-08-04T13:34:21.909Z,37.17
2022-08-04T13:36:50.963Z,37.94
2022-08-04T13:39:21.722Z,37.94
2022-08-04T13:41:58.961Z,37.26
2022-08-04T13:44:30.028Z,38.73
2022-08-04T13:47:02.087Z,38.52
2022-08-04T13:49:42.907Z,38.77
2022-08-04T13:52:19.567Z,38.67
2022-08-04T13:54:53.584Z,38.40
2022-08-04T13:57:29.300Z,37.64
2022-08-04T13:59:59.109Z,37.68
2022-08-04T14:02:27.662Z,37.23
2022-08-04T14:04:58.172Z,37.54
2022-08-04T14:07:29.164Z,37.62
2022-08-04T14:10:03.138Z,37.66
2022-08-04T14:12:38.890Z,38.03
2022-08-04T14:16:01.752Z,38.22
2022-08-04T14:18:22.175Z,38.95
2022-08-04T14:20:59.348Z,38.98
2022-08-04T14:23:31.731Z,37.98
2022-08-04T14:26:03.286Z,38.58
2022-08-04T14:29:09.615Z,39.41
2022-08-04T14:31:19.904Z,38.89
2022-08-04T14:34:04.199Z,38.33
2022-08-04T14:37:16.181Z,37.42
2022-08-04T14:39:39.442Z,37.59
2022-08-04T14:42:09.438Z,37.97
2022-08-04T14:44:54.481Z,38.37
2022-08-04T14:47:40.734Z,38.34
2022-08-04T14:50:09.443Z,38.09
2022-08-04T14:52:37.611Z,37.28
2022-08-04T14:55:18.208Z,37.59
2022-08-04T14:58:34.687Z,36.97
2022-08-04T15:00:37.924Z,36.14
2022-08-04T15:03:07.128Z,37.35
2022-08-04T15:05:59.764Z,38.53
2022-08-04T15:08:24.750Z,38.69
2022-08-04T15:11:01.832Z,39.47
2022-08-04T15:13:35.057Z,39.47
2022-08-04T15:16:08.500Z,39.69
2022-08-04T15:18:37.384Z,39.87
2022-08-04T15:21:05.456Z,39.63
2022-08-04T15:23:39.746Z,38.99
2022-08-04T15:26:08.147Z,38.65
2022-08-04T15:28:38.255Z,38.75
2022-08-04T15:31:10.503Z,38.90
2022-08-04T15:33:55.690Z,39.36
2022-08-04T15:36:24.027Z,39.06
2022-08-04T15:38:53.642Z,39.06
2022-08-04T15:41:24.602Z,38.48
2022-08-04T15:43:56.347Z,39.27
2022-08-04T15:46:44.407Z,39.44
2022-08-04T15:49:22.084Z,39.53
2022-08-04T15:51:50.359Z,39.72
2022-08-04T15:54:30.761Z,39.21
2022-08-04T15:57:02.497Z,38.84
2022-08-04T15:59:50.044Z,38.85
2022-08-04T16:02:32.698Z,38.91
2022-08-04T16:05:30.051Z,39.15
2022-08-04T16:08:04.767Z,39.89
2022-08-04T16:10:39.267Z,39.63
2022-08-04T16:13:14.487Z,39.39
2022-08-04T16:15:47.211Z,39.60
2022-08-04T16:18:26.281Z,39.99
2022-08-04T16:20:58.727Z,39.81
2022-08-04T16:23:54.098Z,39.19
2022-08-04T16:26:45.332Z,39.47
2022-08-04T16:29:41.323Z,38.85
2022-08-04T16:32:10.758Z,38.28
2022-08-04T16:34:49.261Z,38.82
2022-08-04T16:37:23.331Z,38.75
2022-08-04T16:39:52.448Z,38.78
2022-08-04T16:42:38.795Z,39.13
2022-08-04T16:45:15.840Z,39.02
2022-08-04T16:48:01.897Z,38.87
2022-08-04T16:50:29.893Z,38.66
2022-08-04T16:52:58.999Z,38.12
2022-08-04T16:55:27.596Z,37.86
2022-08-04T16:57:58.828Z,37.54
2022-08-04T17:00:30.788Z,37.76
2022-08-04T17:03:01.166Z,37.77
2022-08-04T17:05:38.507Z,37.70
2022-08-04T17:10:57.022Z,37.36
2022-08-04T17:14:02.599Z,37.11
2022-08-04T17:16:17.860Z,37.12
2022-08-04T17:18:47.044Z,37.15
2022-08-04T17:21:15.346Z,37.26
2022-08-04T17:24:12.584Z,36.97
2022-08-04T17:26:39.749Z,36.53
2022-08-04T17:29:09.021Z,36.55
2022-08-04T17:31:37.784Z,36.85
2022-08-04T17:34:15.559Z,37.20
2022-08-04T17:36:44.033Z,36.97
2022-08-04T17:39:16.969Z,36.76
2022-08-04T17:41:48.678Z,36.71
2022-08-04T17:44:21.878Z,36.80
2022-08-04T17:46:50.517Z,36.84
2022-08-04T17:49:21.792Z,36.57
2022-08-04T17:52:04.221Z,36.72
2022-08-04T17:54:37.359Z,36.74
2022-08-04T17:57:14.715Z,36.41
2022-08-04T17:59:52.878Z,36.22
2022-08-04T18:02:36.653Z,36.11
2022-08-04T18:05:12.318Z,36.12
2022-08-04T18:08:34.668Z,36.02
2022-08-04T18:10:55.844Z,35.90
2022-08-04T18:13:25.584Z,35.81
2022-08-04T18:16:02.660Z,35.68
2022-08-04T18:18:30.628Z,35.52
2022-08-04T18:21:03.208Z,35.51
2022-08-04T18:23:34.336Z,35.27
2022-08-04T18:26:14.559Z,35.36
2022-08-04T18:28:42.904Z,35.43
2022-08-04T18:31:10.565Z,35.48
2022-08-04T18:33:42.214Z,35.31
2022-08-04T18:36:35.600Z,35.17
2022-08-04T18:39:13.064Z,35.08
2022-08-04T18:42:02.596Z,35.04
2022-08-04T18:44:49.325Z,34.82
2022-08-04T18:47:23.025Z,34.75
2022-08-04T18:50:59.380Z,34.51
2022-08-04T18:55:56.756Z,34.45
2022-08-04T18:58:27.399Z,34.32
2022-08-04T19:00:55.891Z,34.08
2022-08-04T19:03:24.215Z,33.95
2022-08-04T19:05:52.034Z,33.97
2022-08-04T19:08:34.333Z,33.92
2022-08-04T19:11:36.833Z,34.06
2022-08-04T19:13:54.477Z,34.09
2022-08-04T19:16:31.403Z,33.72
2022-08-04T19:19:00.500Z,33.36
2022-08-04T19:21:59.223Z,33.44
2022-08-04T19:24:32.611Z,33.55
2022-08-04T19:27:06.423Z,33.28
2022-08-04T19:29:41.175Z,32.97
2022-08-04T19:32:13.989Z,33.21
2022-08-04T19:34:45.664Z,32.84
2022-08-04T19:37:56.074Z,33.15
2022-08-04T19:40:02.867Z,32.81
2022-08-04T19:42:33.517Z,32.81
2022-08-04T19:45:02.619Z,33.33
2022-08-04T19:48:12.123Z,33.52
2022-08-04T19:50:23.766Z,33.51
2022-08-04T19:52:52.586Z,33.42
2022-08-04T19:55:22.496Z,33.04
2022-08-04T19:57:51.103Z,32.81
2022-08-04T20:00:33.336Z,32.85
2022-08-04T20:03:03.183Z,32.64
2022-08-04T20:05:52.739Z,32.69
2022-08-04T20:08:20.033Z,32.44
2022-08-04T20:10:51.824Z,32.68
2022-08-04T20:13:20.163Z,32.50
2022-08-04T20:18:54.911Z,32.43
2022-08-04T20:21:53.744Z,32.51
2022-08-04T20:24:40.530Z,32.42
2022-08-04T20:27:07.569Z,32.22
2022-08-04T20:29:40.058Z,31.87
2022-08-04T20:32:10.371Z,31.71
2022-08-04T20:34:41.373Z,32.04
2022-08-04T20:37:10.410Z,31.95
2022-08-04T20:39:43.723Z,32.16
2022-08-04T20:42:12.352Z,32.18
2022-08-04T20:44:42.110Z,32.04
2022-08-04T20:47:16.349Z,31.99
2022-08-04T20:49:46.255Z,31.70
2022-08-04T20:52:20.264Z,31.52
2022-08-04T20:54:49.212Z,31.39
2022-08-04T20:57:48.499Z,30.98
2022-08-04T21:00:15.005Z,30.88
2022-08-04T21:02:44.561Z,31.05
2022-08-04T21:05:12.706Z,30.98
2022-08-04T21:07:41.753Z,31.06
2022-08-04T21:10:11.699Z,31.09
2022-08-04T21:12:40.902Z,31.21
2022-08-04T21:15:13.650Z,30.62
2022-08-04T21:17:58.561Z,30.95
2022-08-04T21:20:31.385Z,30.78
2022-08-04T21:23:02.234Z,30.41
2022-08-04T21:25:31.738Z,30.50
2022-08-04T21:28:04.008Z,30.70
2022-08-04T21:30:32.899Z,30.89
2022-08-04T21:33:22.119Z,30.84
2022-08-04T21:35:54.278Z,30.96
2022-08-04T21:38:28.220Z,30.96
2022-08-04T21:40:57.253Z,30.48
2022-08-04T21:43:27.402Z,30.30
2022-08-04T21:46:03.826Z,30.13
2022-08-04T21:48:34.875Z,29.66
2022-08-04T21:51:57.455Z,29.76
2022-08-04T21:54:05.630Z,29.56
2022-08-04T21:56:33.783Z,29.57
2022-08-04T21:59:05.660Z,29.60
2022-08-04T22:01:52.378Z,29.70
2022-08-04T22:04:25.289Z,29.50
2022-08-04T22:06:53.466Z,29.36
2022-08-04T22:09:22.398Z,29.66
2022-08-04T22:11:51.557Z,30.00
2022-08-04T22:14:28.937Z,29.61
2022-08-04T22:17:02.016Z,29.27
2022-08-04T22:19:50.085Z,28.77
2022-08-04T22:22:24.620Z,29.61
2022-08-04T22:24:54.136Z,29.13
2022-08-04T22:27:35.762Z,29.62
2022-08-04T22:30:08.156Z,29.33
2022-08-04T22:32:41.154Z,29.26
2022-08-04T22:35:30.939Z,29.51
2022-08-04T22:38:07.222Z,29.15
2022-08-04T22:40:43.002Z,29.00
2022-08-04T22:43:32.069Z,28.47
2022-08-04T22:46:02.063Z,29.17
2022-08-04T22:48:31.978Z,28.79
2022-08-04T22:51:01.587Z,29.19
2022-08-04T22:53:30.597Z,29.14
2022-08-04T22:56:09.264Z,29.19
2022-08-04T22:58:40.251Z,28.68
2022-08-04T23:01:08.525Z,28.84
2022-08-04T23:03:38.378Z,28.78
2022-08-04T23:06:11.718Z,28.51
2022-08-04T23:08:43.246Z,28.72
2022-08-04T23:11:14.710Z,28.22
2022-08-04T23:13:43.813Z,28.63
2022-08-04T23:16:12.410Z,28.65
2022-08-04T23:18:42.465Z,28.46
2022-08-04T23:21:17.471Z,28.86
2022-08-04T23:24:00.885Z,28.61
2022-08-04T23:26:32.546Z,28.73
2022-08-04T23:29:03.568Z,28.60
2022-08-04T23:31:40.498Z,28.46
2022-08-04T23:34:09.183Z,28.26
2022-08-04T23:36:43.814Z,28.46
2022-08-04T23:39:17.762Z,28.45
2022-08-04T23:41:54.589Z,28.25
2022-08-04T23:44:27.055Z,27.77
2022-08-04T23:46:58.680Z,26.74
2022-08-04T23:49:44.515Z,27.90
2022-08-04T23:52:23.481Z,27.87
2022-08-04T23:54:58.258Z,27.91
2022-08-04T23:57:31.001Z,27.86
